sensor_id;sensor_type;location;lat;lon;timestamp;noise_LAeq;noise_LA_min;noise_LA_max;noise_LA01;noise_LA95
71030;Laerm;63723;51.436;5.976;2023-02-13T00:00:08;58.46;50.41;62.92;;
71030;Laerm;63723;51.436;5.976;2023-02-13T00:00:20;57.30;50.13;62.70;;
71030;Laerm;63723;51.436;5.976;2023-02-13T00:00:31;53.42;50.20;62.76;;
71030;Laerm;63723;51.436;5.976;2023-02-13T00:00:42;57.69;50.52;63.00;;
71030;Laerm;63723;51.436;5.976;2023-02-13T00:00:52;58.99;50.38;62.86;;
71030;Laerm;63723;51.436;5.976;2023-02-13T00:01:03;57.89;50.25;62.65;;
71030;Laerm;63723;51.436;5.976;2023-02-13T00:01:13;51.50;49.50;52.60;;
71030;Laerm;63723;51.436;5.976;2023-02-13T00:01:24;55.32;49.95;62.39;;
71030;Laerm;63723;51.436;5.976;2023-02-13T00:01:34;57.52;50.30;62.44;;
71030;Laerm;63723;51.436;5.976;2023-02-13T00:01:44;56.81;50.08;62.33;;
71030;Laerm;63723;51.436;5.976;2023-02-13T00:01:55;58.30;50.11;61.93;;
71030;Laerm;63723;51.436;5.976;2023-02-13T00:02:05;53.27;49.84;61.62;;
71030;Laerm;63723;51.436;5.976;2023-02-13T00:02:15;58.58;50.34;63.17;;
71030;Laerm;63723;51.436;5.976;2023-02-13T00:02:26;57.49;50.21;62.84;;
71030;Laerm;63723;51.436;5.976;2023-02-13T00:02:36;55.74;50.12;62.39;;
71030;Laerm;63723;51.436;5.976;2023-02-13T00:02:47;57.49;50.36;63.46;;
71030;Laerm;63723;51.436;5.976;2023-02-13T00:02:57;51.41;50.24;52.47;;
71030;Laerm;63723;51.436;5.976;2023-02-13T00:03:07;56.24;50.29;62.49;;
71030;Laerm;63723;51.436;5.976;2023-02-13T00:03:17;56.15;50.40;62.71;;
71030;Laerm;63723;51.436;5.976;2023-02-13T00:03:28;51.50;50.03;52.76;;
71030;Laerm;63723;51.436;5.976;2023-02-13T00:03:38;51.85;50.42;53.24;;
71030;Laerm;63723;51.436;5.976;2023-02-13T00:03:48;51.92;50.41;53.01;;
71030;Laerm;63723;51.436;5.976;2023-02-13T00:03:59;51.88;50.55;53.24;;
71030;Laerm;63723;51.436;5.976;2023-02-13T00:04:09;51.96;50.22;53.13;;
71030;Laerm;63723;51.436;5.976;2023-02-13T00:04:20;51.92;50.76;53.19;;
71030;Laerm;63723;51.436;5.976;2023-02-13T00:04:30;51.88;50.33;53.22;;
71030;Laerm;63723;51.436;5.976;2023-02-13T00:04:40;55.67;50.36;62.95;;
71030;Laerm;63723;51.436;5.976;2023-02-13T00:04:54;51.40;49.92;52.66;;
71030;Laerm;63723;51.436;5.976;2023-02-13T00:05:04;55.24;49.77;63.39;;
71030;Laerm;63723;51.436;5.976;2023-02-13T00:05:14;55.02;49.95;63.31;;
71030;Laerm;63723;51.436;5.976;2023-02-13T00:05:25;59.59;50.01;64.97;;
71030;Laerm;63723;51.436;5.976;2023-02-13T00:05:35;52.05;49.86;62.15;;
71030;Laerm;63723;51.436;5.976;2023-02-13T00:05:45;57.80;49.71;64.10;;
71030;Laerm;63723;51.436;5.976;2023-02-13T00:05:56;55.66;49.85;63.62;;
71030;Laerm;63723;51.436;5.976;2023-02-13T00:06:06;53.60;49.92;63.35;;
71030;Laerm;63723;51.436;5.976;2023-02-13T00:06:16;57.95;49.63;63.78;;
71030;Laerm;63723;51.436;5.976;2023-02-13T00:06:27;58.11;49.92;63.94;;
71030;Laerm;63723;51.436;5.976;2023-02-13T00:06:37;59.08;49.38;63.32;;
71030;Laerm;63723;51.436;5.976;2023-02-13T00:06:47;59.73;50.16;63.89;;
71030;Laerm;63723;51.436;5.976;2023-02-13T00:06:57;56.64;49.94;63.22;;
71030;Laerm;63723;51.436;5.976;2023-02-13T00:07:08;58.44;50.12;63.01;;
71030;Laerm;63723;51.436;5.976;2023-02-13T00:07:20;53.70;49.98;61.51;;
71030;Laerm;63723;51.436;5.976;2023-02-13T00:07:31;52.76;49.86;61.37;;
71030;Laerm;63723;51.436;5.976;2023-02-13T00:07:41;58.98;50.10;62.36;;
71030;Laerm;63723;51.436;5.976;2023-02-13T00:07:51;56.92;50.00;62.46;;
71030;Laerm;63723;51.436;5.976;2023-02-13T00:08:02;55.53;49.77;62.42;;
71030;Laerm;63723;51.436;5.976;2023-02-13T00:08:12;56.70;50.01;62.29;;
71030;Laerm;63723;51.436;5.976;2023-02-13T00:08:22;57.78;49.79;62.51;;
71030;Laerm;63723;51.436;5.976;2023-02-13T00:08:33;54.31;49.39;62.55;;
71030;Laerm;63723;51.436;5.976;2023-02-13T00:08:43;57.50;50.09;62.43;;
71030;Laerm;63723;51.436;5.976;2023-02-13T00:08:53;54.03;49.79;62.12;;
71030;Laerm;63723;51.436;5.976;2023-02-13T00:09:03;59.87;50.16;65.74;;
71030;Laerm;63723;51.436;5.976;2023-02-13T00:09:14;51.12;49.89;52.11;;
71030;Laerm;63723;51.436;5.976;2023-02-13T00:09:24;51.11;49.89;52.27;;
71030;Laerm;63723;51.436;5.976;2023-02-13T00:09:34;55.55;49.34;62.53;;
71030;Laerm;63723;51.436;5.976;2023-02-13T00:09:44;51.08;49.78;52.39;;
71030;Laerm;63723;51.436;5.976;2023-02-13T00:09:55;58.14;50.36;61.82;;
71030;Laerm;63723;51.436;5.976;2023-02-13T00:10:05;55.08;50.10;61.74;;
71030;Laerm;63723;51.436;5.976;2023-02-13T00:10:16;55.78;49.87;61.26;;
71030;Laerm;63723;51.436;5.976;2023-02-13T00:10:26;54.70;49.89;62.72;;
71030;Laerm;63723;51.436;5.976;2023-02-13T00:10:37;54.96;49.64;62.54;;
71030;Laerm;63723;51.436;5.976;2023-02-13T00:10:47;56.44;50.13;62.56;;
71030;Laerm;63723;51.436;5.976;2023-02-13T00:10:57;58.25;50.02;62.74;;
71030;Laerm;63723;51.436;5.976;2023-02-13T00:11:08;58.01;50.11;62.88;;
71030;Laerm;63723;51.436;5.976;2023-02-13T00:11:18;55.84;50.08;62.26;;
71030;Laerm;63723;51.436;5.976;2023-02-13T00:11:29;56.95;50.21;62.52;;
71030;Laerm;63723;51.436;5.976;2023-02-13T00:11:39;55.69;50.07;62.35;;
71030;Laerm;63723;51.436;5.976;2023-02-13T00:11:50;54.56;50.16;61.10;;
71030;Laerm;63723;51.436;5.976;2023-02-13T00:12:00;51.17;50.17;52.23;;
71030;Laerm;63723;51.436;5.976;2023-02-13T00:12:10;57.07;50.10;61.08;;
71030;Laerm;63723;51.436;5.976;2023-02-13T00:12:20;51.32;49.91;57.85;;
71030;Laerm;63723;51.436;5.976;2023-02-13T00:12:31;54.44;49.81;60.59;;
71030;Laerm;63723;51.436;5.976;2023-02-13T00:12:41;53.27;49.82;60.59;;
71030;Laerm;63723;51.436;5.976;2023-02-13T00:12:51;55.04;49.59;60.62;;
71030;Laerm;63723;51.436;5.976;2023-02-13T00:13:01;54.37;50.11;60.91;;
71030;Laerm;63723;51.436;5.976;2023-02-13T00:13:12;55.16;50.00;59.84;;
71030;Laerm;63723;51.436;5.976;2023-02-13T00:13:22;54.16;50.04;60.43;;
71030;Laerm;63723;51.436;5.976;2023-02-13T00:13:33;52.86;51.20;60.20;;
71030;Laerm;63723;51.436;5.976;2023-02-13T00:13:43;55.03;51.12;60.74;;
71030;Laerm;63723;51.436;5.976;2023-02-13T00:13:54;54.76;51.02;61.92;;
71030;Laerm;63723;51.436;5.976;2023-02-13T00:14:04;54.23;51.25;61.92;;
71030;Laerm;63723;51.436;5.976;2023-02-13T00:14:14;53.51;50.47;60.25;;
71030;Laerm;63723;51.436;5.976;2023-02-13T00:14:25;57.24;51.21;61.02;;
71030;Laerm;63723;51.436;5.976;2023-02-13T00:14:36;53.30;51.13;60.49;;
71030;Laerm;63723;51.436;5.976;2023-02-13T00:14:46;56.50;50.89;60.81;;
71030;Laerm;63723;51.436;5.976;2023-02-13T00:14:57;55.13;50.93;59.99;;
71030;Laerm;63723;51.436;5.976;2023-02-13T00:15:08;54.39;51.22;60.09;;
71030;Laerm;63723;51.436;5.976;2023-02-13T00:15:18;52.43;51.12;60.55;;
71030;Laerm;63723;51.436;5.976;2023-02-13T00:15:29;56.92;51.14;60.65;;
71030;Laerm;63723;51.436;5.976;2023-02-13T00:15:39;52.68;51.13;60.01;;
71030;Laerm;63723;51.436;5.976;2023-02-13T00:15:56;56.66;51.01;60.52;;
71030;Laerm;63723;51.436;5.976;2023-02-13T00:16:07;54.89;50.93;60.81;;
71030;Laerm;63723;51.436;5.976;2023-02-13T00:16:18;52.69;50.74;59.53;;
71030;Laerm;63723;51.436;5.976;2023-02-13T00:16:28;54.88;50.35;60.41;;
71030;Laerm;63723;51.436;5.976;2023-02-13T00:16:38;52.26;49.80;59.44;;
71030;Laerm;63723;51.436;5.976;2023-02-13T00:16:49;54.51;50.02;60.12;;
71030;Laerm;63723;51.436;5.976;2023-02-13T00:16:59;55.51;49.82;60.06;;
71030;Laerm;63723;51.436;5.976;2023-02-13T00:17:09;51.98;49.56;59.31;;
71030;Laerm;63723;51.436;5.976;2023-02-13T00:17:19;51.40;49.95;58.49;;
71030;Laerm;63723;51.436;5.976;2023-02-13T00:17:30;55.49;49.95;59.80;;
71030;Laerm;63723;51.436;5.976;2023-02-13T00:17:40;53.75;49.82;59.51;;
71030;Laerm;63723;51.436;5.976;2023-02-13T00:17:50;55.65;49.78;59.67;;
71030;Laerm;63723;51.436;5.976;2023-02-13T00:18:01;54.68;49.89;59.82;;
71030;Laerm;63723;51.436;5.976;2023-02-13T00:18:11;51.31;49.33;57.59;;
71030;Laerm;63723;51.436;5.976;2023-02-13T00:18:22;51.65;48.51;59.42;;
71030;Laerm;63723;51.436;5.976;2023-02-13T00:18:33;50.61;48.74;57.10;;
71030;Laerm;63723;51.436;5.976;2023-02-13T00:18:44;54.66;48.95;58.32;;
71030;Laerm;63723;51.436;5.976;2023-02-13T00:18:55;53.36;49.09;59.85;;
71030;Laerm;63723;51.436;5.976;2023-02-13T00:19:05;53.17;48.98;59.13;;
71030;Laerm;63723;51.436;5.976;2023-02-13T00:19:15;55.16;49.15;59.74;;
71030;Laerm;63723;51.436;5.976;2023-02-13T00:19:26;54.21;48.37;60.86;;
71030;Laerm;63723;51.436;5.976;2023-02-13T00:19:36;53.99;48.97;58.50;;
71030;Laerm;63723;51.436;5.976;2023-02-13T00:19:46;53.51;49.22;59.42;;
71030;Laerm;63723;51.436;5.976;2023-02-13T00:19:57;51.16;48.70;59.29;;
71030;Laerm;63723;51.436;5.976;2023-02-13T00:20:08;49.95;48.83;51.55;;
71030;Laerm;63723;51.436;5.976;2023-02-13T00:20:19;49.94;48.58;51.02;;
71030;Laerm;63723;51.436;5.976;2023-02-13T00:20:29;52.93;48.94;60.49;;
71030;Laerm;63723;51.436;5.976;2023-02-13T00:20:39;51.35;49.08;59.12;;
71030;Laerm;63723;51.436;5.976;2023-02-13T00:20:59;51.38;48.92;59.84;;
71030;Laerm;63723;51.436;5.976;2023-02-13T00:21:10;52.88;48.82;60.23;;
71030;Laerm;63723;51.436;5.976;2023-02-13T00:21:21;51.47;48.91;59.99;;
71030;Laerm;63723;51.436;5.976;2023-02-13T00:21:31;52.20;48.81;59.91;;
71030;Laerm;63723;51.436;5.976;2023-02-13T00:21:41;52.34;48.82;61.13;;
71030;Laerm;63723;51.436;5.976;2023-02-13T00:21:52;52.26;48.23;60.92;;
71030;Laerm;63723;51.436;5.976;2023-02-13T00:22:02;52.33;48.73;59.33;;
71030;Laerm;63723;51.436;5.976;2023-02-13T00:22:12;53.36;49.08;59.98;;
71030;Laerm;63723;51.436;5.976;2023-02-13T00:22:25;52.78;48.87;60.09;;
71030;Laerm;63723;51.436;5.976;2023-02-13T00:22:36;51.60;48.64;60.31;;
71030;Laerm;63723;51.436;5.976;2023-02-13T00:22:47;51.67;48.87;59.59;;
71030;Laerm;63723;51.436;5.976;2023-02-13T00:22:58;50.44;48.96;57.70;;
71030;Laerm;63723;51.436;5.976;2023-02-13T00:23:08;50.23;48.69;58.50;;
71030;Laerm;63723;51.436;5.976;2023-02-13T00:23:18;50.91;48.71;58.38;;
71030;Laerm;63723;51.436;5.976;2023-02-13T00:23:29;50.84;48.98;55.13;;
71030;Laerm;63723;51.436;5.976;2023-02-13T00:23:40;52.36;48.85;56.29;;
71030;Laerm;63723;51.436;5.976;2023-02-13T00:23:50;54.09;50.47;56.56;;
71030;Laerm;63723;51.436;5.976;2023-02-13T00:24:00;53.29;48.93;57.95;;
71030;Laerm;63723;51.436;5.976;2023-02-13T00:24:11;53.14;48.85;56.69;;
71030;Laerm;63723;51.436;5.976;2023-02-13T00:24:21;52.96;49.09;56.37;;
71030;Laerm;63723;51.436;5.976;2023-02-13T00:24:31;52.08;49.02;57.11;;
71030;Laerm;63723;51.436;5.976;2023-02-13T00:24:42;51.71;49.05;56.77;;
71030;Laerm;63723;51.436;5.976;2023-02-13T00:24:52;52.56;49.17;56.46;;
71030;Laerm;63723;51.436;5.976;2023-02-13T00:25:03;52.97;49.13;56.28;;
71030;Laerm;63723;51.436;5.976;2023-02-13T00:25:13;54.14;51.61;57.15;;
71030;Laerm;63723;51.436;5.976;2023-02-13T00:25:23;54.58;51.83;57.00;;
71030;Laerm;63723;51.436;5.976;2023-02-13T00:25:34;54.26;51.83;56.37;;
71030;Laerm;63723;51.436;5.976;2023-02-13T00:25:44;52.61;48.91;56.60;;
71030;Laerm;63723;51.436;5.976;2023-02-13T00:25:54;50.07;48.72;51.19;;
71030;Laerm;63723;51.436;5.976;2023-02-13T00:26:09;50.74;48.91;54.84;;
71030;Laerm;63723;51.436;5.976;2023-02-13T00:26:20;53.21;48.99;56.54;;
71030;Laerm;63723;51.436;5.976;2023-02-13T00:26:30;53.75;49.22;57.31;;
71030;Laerm;63723;51.436;5.976;2023-02-13T00:26:40;54.46;49.08;57.40;;
71030;Laerm;63723;51.436;5.976;2023-02-13T00:26:50;53.28;48.90;57.66;;
71030;Laerm;63723;51.436;5.976;2023-02-13T00:27:01;54.44;49.41;57.22;;
71030;Laerm;63723;51.436;5.976;2023-02-13T00:27:11;54.75;49.31;58.69;;
71030;Laerm;63723;51.436;5.976;2023-02-13T00:27:21;51.69;48.75;56.95;;
71030;Laerm;63723;51.436;5.976;2023-02-13T00:27:32;53.41;49.28;58.19;;
71030;Laerm;63723;51.436;5.976;2023-02-13T00:27:42;53.78;48.97;59.10;;
71030;Laerm;63723;51.436;5.976;2023-02-13T00:27:53;52.47;49.13;57.62;;
71030;Laerm;63723;51.436;5.976;2023-02-13T00:28:03;55.48;49.51;58.66;;
71030;Laerm;63723;51.436;5.976;2023-02-13T00:28:13;51.17;49.18;57.28;;
71030;Laerm;63723;51.436;5.976;2023-02-13T00:28:23;52.25;49.08;58.79;;
71030;Laerm;63723;51.436;5.976;2023-02-13T00:28:34;50.43;48.96;51.59;;
71030;Laerm;63723;51.436;5.976;2023-02-13T00:28:45;50.44;49.22;51.53;;
71030;Laerm;63723;51.436;5.976;2023-02-13T00:28:55;50.52;48.96;52.19;;
71030;Laerm;63723;51.436;5.976;2023-02-13T00:29:06;50.70;49.30;52.08;;
71030;Laerm;63723;51.436;5.976;2023-02-13T00:29:16;50.72;49.22;52.69;;
71030;Laerm;63723;51.436;5.976;2023-02-13T00:29:26;51.18;49.96;52.37;;
71030;Laerm;63723;51.436;5.976;2023-02-13T00:29:36;51.02;49.72;52.26;;
71030;Laerm;63723;51.436;5.976;2023-02-13T00:29:47;50.99;49.87;51.92;;
71030;Laerm;63723;51.436;5.976;2023-02-13T00:29:57;51.01;49.78;52.56;;
71030;Laerm;63723;51.436;5.976;2023-02-13T00:30:07;50.90;49.89;51.96;;
71030;Laerm;63723;51.436;5.976;2023-02-13T00:30:18;50.95;49.82;52.23;;
71030;Laerm;63723;51.436;5.976;2023-02-13T00:30:28;50.89;49.36;52.33;;
71030;Laerm;63723;51.436;5.976;2023-02-13T00:30:39;50.83;49.77;51.87;;
71030;Laerm;63723;51.436;5.976;2023-02-13T00:30:49;50.88;49.81;51.94;;
71030;Laerm;63723;51.436;5.976;2023-02-13T00:31:07;50.93;49.63;51.85;;
71030;Laerm;63723;51.436;5.976;2023-02-13T00:31:18;50.87;49.39;52.08;;
71030;Laerm;63723;51.436;5.976;2023-02-13T00:31:28;51.21;49.85;54.52;;
71030;Laerm;63723;51.436;5.976;2023-02-13T00:31:39;50.80;49.58;51.88;;
71030;Laerm;63723;51.436;5.976;2023-02-13T00:31:49;50.79;49.59;51.96;;
71030;Laerm;63723;51.436;5.976;2023-02-13T00:32:00;51.43;49.79;54.02;;
71030;Laerm;63723;51.436;5.976;2023-02-13T00:32:10;51.85;49.94;58.50;;
71030;Laerm;63723;51.436;5.976;2023-02-13T00:32:20;51.27;49.72;53.31;;
71030;Laerm;63723;51.436;5.976;2023-02-13T00:32:31;51.24;49.69;54.02;;
71030;Laerm;63723;51.436;5.976;2023-02-13T00:32:41;51.22;49.32;53.16;;
71030;Laerm;63723;51.436;5.976;2023-02-13T00:32:51;51.27;49.61;56.47;;
71030;Laerm;63723;51.436;5.976;2023-02-13T00:33:02;51.64;49.92;54.25;;
71030;Laerm;63723;51.436;5.976;2023-02-13T00:33:12;51.29;49.46;53.40;;
71030;Laerm;63723;51.436;5.976;2023-02-13T00:33:22;51.44;49.72;53.37;;
71030;Laerm;63723;51.436;5.976;2023-02-13T00:33:33;51.12;49.45;54.81;;
71030;Laerm;63723;51.436;5.976;2023-02-13T00:33:43;51.42;49.66;54.16;;
71030;Laerm;63723;51.436;5.976;2023-02-13T00:33:53;51.70;49.93;53.45;;
71030;Laerm;63723;51.436;5.976;2023-02-13T00:34:04;51.78;49.94;53.69;;
71030;Laerm;63723;51.436;5.976;2023-02-13T00:34:14;51.14;49.57;53.02;;
71030;Laerm;63723;51.436;5.976;2023-02-13T00:34:24;51.43;49.76;53.05;;
71030;Laerm;63723;51.436;5.976;2023-02-13T00:34:34;51.28;49.57;53.69;;
71030;Laerm;63723;51.436;5.976;2023-02-13T00:34:45;51.11;49.14;53.82;;
71030;Laerm;63723;51.436;5.976;2023-02-13T00:34:56;50.91;49.33;52.52;;
71030;Laerm;63723;51.436;5.976;2023-02-13T00:35:06;50.97;49.16;52.86;;
71030;Laerm;63723;51.436;5.976;2023-02-13T00:35:16;50.94;49.25;52.54;;
71030;Laerm;63723;51.436;5.976;2023-02-13T00:35:27;51.03;49.34;52.89;;
71030;Laerm;63723;51.436;5.976;2023-02-13T00:35:37;50.78;49.40;52.72;;
71030;Laerm;63723;51.436;5.976;2023-02-13T00:35:47;50.68;49.29;52.50;;
71030;Laerm;63723;51.436;5.976;2023-02-13T00:36:17;51.01;49.43;52.56;;
71030;Laerm;63723;51.436;5.976;2023-02-13T00:36:27;51.14;49.20;53.19;;
71030;Laerm;63723;51.436;5.976;2023-02-13T00:36:38;51.28;49.64;53.36;;
71030;Laerm;63723;51.436;5.976;2023-02-13T00:36:48;50.61;49.05;51.79;;
71030;Laerm;63723;51.436;5.976;2023-02-13T00:36:58;51.75;49.68;53.98;;
71030;Laerm;63723;51.436;5.976;2023-02-13T00:37:09;51.16;49.53;53.35;;
71030;Laerm;63723;51.436;5.976;2023-02-13T00:37:19;51.15;49.67;53.20;;
71030;Laerm;63723;51.436;5.976;2023-02-13T00:37:29;51.17;49.39;53.93;;
71030;Laerm;63723;51.436;5.976;2023-02-13T00:37:39;51.23;49.28;53.35;;
71030;Laerm;63723;51.436;5.976;2023-02-13T00:37:50;50.69;49.48;53.15;;
71030;Laerm;63723;51.436;5.976;2023-02-13T00:38:00;51.32;49.36;53.11;;
71030;Laerm;63723;51.436;5.976;2023-02-13T00:38:10;51.42;49.24;53.47;;
71030;Laerm;63723;51.436;5.976;2023-02-13T00:38:21;50.59;49.06;51.79;;
71030;Laerm;63723;51.436;5.976;2023-02-13T00:38:31;50.88;49.10;53.44;;
71030;Laerm;63723;51.436;5.976;2023-02-13T00:38:41;50.59;49.47;52.05;;
71030;Laerm;63723;51.436;5.976;2023-02-13T00:38:52;50.52;49.28;51.76;;
71030;Laerm;63723;51.436;5.976;2023-02-13T00:39:03;50.61;49.39;51.93;;
71030;Laerm;63723;51.436;5.976;2023-02-13T00:39:13;50.58;49.63;51.76;;
71030;Laerm;63723;51.436;5.976;2023-02-13T00:39:23;50.57;49.14;51.85;;
71030;Laerm;63723;51.436;5.976;2023-02-13T00:39:34;50.56;49.31;51.77;;
71030;Laerm;63723;51.436;5.976;2023-02-13T00:39:44;50.58;49.06;51.92;;
71030;Laerm;63723;51.436;5.976;2023-02-13T00:39:54;50.55;49.30;51.75;;
71030;Laerm;63723;51.436;5.976;2023-02-13T00:40:05;50.56;49.08;52.42;;
71030;Laerm;63723;51.436;5.976;2023-02-13T00:40:15;50.45;49.28;51.74;;
71030;Laerm;63723;51.436;5.976;2023-02-13T00:40:26;50.44;49.06;52.12;;
71030;Laerm;63723;51.436;5.976;2023-02-13T00:40:36;50.50;49.15;51.90;;
71030;Laerm;63723;51.436;5.976;2023-02-13T00:40:46;50.46;49.36;51.95;;
71030;Laerm;63723;51.436;5.976;2023-02-13T00:40:56;50.43;49.14;51.59;;
71030;Laerm;63723;51.436;5.976;2023-02-13T00:41:07;50.53;49.41;51.84;;
71030;Laerm;63723;51.436;5.976;2023-02-13T00:41:17;50.68;49.28;52.03;;
71030;Laerm;63723;51.436;5.976;2023-02-13T00:41:28;50.55;49.40;52.08;;
71030;Laerm;63723;51.436;5.976;2023-02-13T00:41:39;50.68;49.45;52.21;;
71030;Laerm;63723;51.436;5.976;2023-02-13T00:41:49;50.66;49.33;55.37;;
71030;Laerm;63723;51.436;5.976;2023-02-13T00:41:59;50.68;49.33;52.16;;
71030;Laerm;63723;51.436;5.976;2023-02-13T00:42:09;50.78;49.35;52.25;;
71030;Laerm;63723;51.436;5.976;2023-02-13T00:42:20;50.77;49.42;52.41;;
71030;Laerm;63723;51.436;5.976;2023-02-13T00:42:33;50.62;49.39;52.34;;
71030;Laerm;63723;51.436;5.976;2023-02-13T00:42:43;50.59;49.15;51.64;;
71030;Laerm;63723;51.436;5.976;2023-02-13T00:42:53;50.52;49.26;52.10;;
71030;Laerm;63723;51.436;5.976;2023-02-13T00:43:03;50.73;49.36;52.19;;
71030;Laerm;63723;51.436;5.976;2023-02-13T00:43:14;50.69;49.58;52.23;;
71030;Laerm;63723;51.436;5.976;2023-02-13T00:43:24;51.10;49.18;54.77;;
71030;Laerm;63723;51.436;5.976;2023-02-13T00:43:34;50.51;49.12;51.60;;
71030;Laerm;63723;51.436;5.976;2023-02-13T00:43:45;50.54;49.23;51.90;;
71030;Laerm;63723;51.436;5.976;2023-02-13T00:43:56;50.71;49.43;52.09;;
71030;Laerm;63723;51.436;5.976;2023-02-13T00:44:07;50.69;49.22;51.86;;
71030;Laerm;63723;51.436;5.976;2023-02-13T00:44:18;50.70;49.38;51.92;;
71030;Laerm;63723;51.436;5.976;2023-02-13T00:44:28;50.85;49.37;52.01;;
71030;Laerm;63723;51.436;5.976;2023-02-13T00:44:38;50.69;49.57;52.33;;
71030;Laerm;63723;51.436;5.976;2023-02-13T00:44:49;50.65;49.13;52.00;;
71030;Laerm;63723;51.436;5.976;2023-02-13T00:44:59;50.89;49.75;52.25;;
71030;Laerm;63723;51.436;5.976;2023-02-13T00:45:10;50.74;49.42;51.99;;
71030;Laerm;63723;51.436;5.976;2023-02-13T00:45:20;50.77;49.31;52.47;;
71030;Laerm;63723;51.436;5.976;2023-02-13T00:45:30;50.82;49.58;53.07;;
71030;Laerm;63723;51.436;5.976;2023-02-13T00:45:41;51.36;49.52;52.86;;
71030;Laerm;63723;51.436;5.976;2023-02-13T00:45:52;50.80;49.37;52.96;;
71030;Laerm;63723;51.436;5.976;2023-02-13T00:46:02;51.31;49.05;53.31;;
71030;Laerm;63723;51.436;5.976;2023-02-13T00:46:13;51.06;49.40;53.06;;
71030;Laerm;63723;51.436;5.976;2023-02-13T00:46:23;50.92;49.47;53.81;;
71030;Laerm;63723;51.436;5.976;2023-02-13T00:46:34;50.89;49.28;52.67;;
71030;Laerm;63723;51.436;5.976;2023-02-13T00:46:44;51.65;49.74;53.39;;
71030;Laerm;63723;51.436;5.976;2023-02-13T00:46:54;51.53;49.46;54.04;;
71030;Laerm;63723;51.436;5.976;2023-02-13T00:47:04;51.10;49.20;53.08;;
71030;Laerm;63723;51.436;5.976;2023-02-13T00:47:15;51.13;49.49;53.21;;
71030;Laerm;63723;51.436;5.976;2023-02-13T00:47:25;51.57;49.67;53.49;;
71030;Laerm;63723;51.436;5.976;2023-02-13T00:47:35;51.04;49.31;53.45;;
71030;Laerm;63723;51.436;5.976;2023-02-13T00:47:45;51.26;49.32;53.10;;
71030;Laerm;63723;51.436;5.976;2023-02-13T00:47:56;50.81;49.42;52.88;;
71030;Laerm;63723;51.436;5.976;2023-02-13T00:48:06;51.24;49.93;53.00;;
71030;Laerm;63723;51.436;5.976;2023-02-13T00:48:16;51.04;49.68;52.89;;
71030;Laerm;63723;51.436;5.976;2023-02-13T00:48:27;51.37;49.69;52.73;;
71030;Laerm;63723;51.436;5.976;2023-02-13T00:48:38;51.22;49.26;52.92;;
71030;Laerm;63723;51.436;5.976;2023-02-13T00:48:49;51.14;49.61;53.32;;
71030;Laerm;63723;51.436;5.976;2023-02-13T00:48:59;51.62;49.87;52.83;;
71030;Laerm;63723;51.436;5.976;2023-02-13T00:49:09;50.78;49.44;52.61;;
71030;Laerm;63723;51.436;5.976;2023-02-13T00:49:19;51.05;49.63;52.98;;
71030;Laerm;63723;51.436;5.976;2023-02-13T00:49:30;51.46;49.31;52.85;;
71030;Laerm;63723;51.436;5.976;2023-02-13T00:49:40;51.06;49.55;52.99;;
71030;Laerm;63723;51.436;5.976;2023-02-13T00:49:50;51.15;49.56;52.52;;
71030;Laerm;63723;51.436;5.976;2023-02-13T00:50:01;51.02;49.34;52.76;;
71030;Laerm;63723;51.436;5.976;2023-02-13T00:50:11;51.06;49.78;52.38;;
71030;Laerm;63723;51.436;5.976;2023-02-13T00:50:21;50.82;49.40;52.68;;
71030;Laerm;63723;51.436;5.976;2023-02-13T00:50:31;51.00;49.34;52.26;;
71030;Laerm;63723;51.436;5.976;2023-02-13T00:50:42;50.82;49.21;52.50;;
71030;Laerm;63723;51.436;5.976;2023-02-13T00:50:52;51.36;49.62;52.70;;
71030;Laerm;63723;51.436;5.976;2023-02-13T00:51:03;51.24;49.72;52.65;;
71030;Laerm;63723;51.436;5.976;2023-02-13T00:51:14;51.16;49.60;52.58;;
71030;Laerm;63723;51.436;5.976;2023-02-13T00:51:24;50.86;49.47;52.38;;
71030;Laerm;63723;51.436;5.976;2023-02-13T00:51:34;51.37;49.32;53.06;;
71030;Laerm;63723;51.436;5.976;2023-02-13T00:51:44;51.22;49.82;53.03;;
71030;Laerm;63723;51.436;5.976;2023-02-13T00:51:55;51.07;49.06;53.50;;
71030;Laerm;63723;51.436;5.976;2023-02-13T00:52:05;51.01;49.31;52.66;;
71030;Laerm;63723;51.436;5.976;2023-02-13T00:52:15;50.85;49.35;52.74;;
71030;Laerm;63723;51.436;5.976;2023-02-13T00:52:25;50.81;49.40;52.56;;
71030;Laerm;63723;51.436;5.976;2023-02-13T00:52:36;50.69;49.22;52.20;;
71030;Laerm;63723;51.436;5.976;2023-02-13T00:52:46;50.82;49.32;52.56;;
71030;Laerm;63723;51.436;5.976;2023-02-13T00:52:56;50.65;49.06;52.49;;
71030;Laerm;63723;51.436;5.976;2023-02-13T00:53:06;51.03;49.49;52.71;;
71030;Laerm;63723;51.436;5.976;2023-02-13T00:53:17;50.95;49.52;52.63;;
71030;Laerm;63723;51.436;5.976;2023-02-13T00:53:28;51.19;49.30;62.07;;
71030;Laerm;63723;51.436;5.976;2023-02-13T00:53:38;50.85;49.44;52.33;;
71030;Laerm;63723;51.436;5.976;2023-02-13T00:53:48;50.61;49.42;52.07;;
71030;Laerm;63723;51.436;5.976;2023-02-13T00:53:59;50.84;49.33;52.21;;
71030;Laerm;63723;51.436;5.976;2023-02-13T00:54:10;50.65;48.91;51.87;;
71030;Laerm;63723;51.436;5.976;2023-02-13T00:54:20;50.58;49.33;51.83;;
71030;Laerm;63723;51.436;5.976;2023-02-13T00:54:30;50.56;49.43;53.09;;
71030;Laerm;63723;51.436;5.976;2023-02-13T00:54:41;50.55;49.32;51.84;;
71030;Laerm;63723;51.436;5.976;2023-02-13T00:54:51;50.43;49.49;51.89;;
71030;Laerm;63723;51.436;5.976;2023-02-13T00:55:01;50.68;49.61;52.04;;
71030;Laerm;63723;51.436;5.976;2023-02-13T00:55:11;50.89;49.03;54.56;;
71030;Laerm;63723;51.436;5.976;2023-02-13T00:55:22;50.51;49.23;51.76;;
71030;Laerm;63723;51.436;5.976;2023-02-13T00:55:32;50.72;49.34;52.12;;
71030;Laerm;63723;51.436;5.976;2023-02-13T00:55:44;50.62;49.52;51.97;;
71030;Laerm;63723;51.436;5.976;2023-02-13T00:55:54;50.42;48.92;51.82;;
71030;Laerm;63723;51.436;5.976;2023-02-13T00:56:05;50.77;49.24;51.99;;
71030;Laerm;63723;51.436;5.976;2023-02-13T00:56:16;50.89;49.39;52.32;;
71030;Laerm;63723;51.436;5.976;2023-02-13T00:56:26;50.82;49.26;53.15;;
71030;Laerm;63723;51.436;5.976;2023-02-13T00:56:37;51.02;49.72;52.70;;
71030;Laerm;63723;51.436;5.976;2023-02-13T00:56:47;50.71;49.13;52.06;;
71030;Laerm;63723;51.436;5.976;2023-02-13T00:56:57;50.91;49.65;52.10;;
71030;Laerm;63723;51.436;5.976;2023-02-13T00:57:08;51.13;49.43;52.63;;
71030;Laerm;63723;51.436;5.976;2023-02-13T00:57:18;50.62;49.45;52.25;;
71030;Laerm;63723;51.436;5.976;2023-02-13T00:57:28;50.82;49.10;52.43;;
71030;Laerm;63723;51.436;5.976;2023-02-13T00:57:40;50.97;49.31;52.40;;
71030;Laerm;63723;51.436;5.976;2023-02-13T00:57:51;50.73;49.25;51.98;;
71030;Laerm;63723;51.436;5.976;2023-02-13T00:58:01;50.79;49.36;52.46;;
71030;Laerm;63723;51.436;5.976;2023-02-13T00:58:11;50.69;49.21;51.95;;
71030;Laerm;63723;51.436;5.976;2023-02-13T00:58:22;50.70;49.50;52.11;;
71030;Laerm;63723;51.436;5.976;2023-02-13T00:58:32;50.66;49.48;51.90;;
71030;Laerm;63723;51.436;5.976;2023-02-13T00:58:42;50.60;49.53;51.74;;
71030;Laerm;63723;51.436;5.976;2023-02-13T00:58:53;50.43;49.14;51.52;;
71030;Laerm;63723;51.436;5.976;2023-02-13T00:59:03;50.53;49.11;51.84;;
71030;Laerm;63723;51.436;5.976;2023-02-13T00:59:13;50.49;49.31;51.73;;